createdAt,value
2018-05-25T00:00:17.333Z,92.90
2018-05-25T00:02:45.668Z,92.80
2018-05-25T00:05:14.000Z,92.60
2018-05-25T00:07:42.291Z,92.40
2018-05-25T00:10:10.619Z,92.30
2018-05-25T00:12:39.686Z,92.00
2018-05-25T00:15:08.021Z,92.00
2018-05-25T00:17:36.323Z,92.00
2018-05-25T00:20:04.638Z,91.90
2018-05-25T00:22:32.927Z,91.90
2018-05-25T00:25:02.084Z,92.10
2018-05-25T00:27:30.451Z,92.10
2018-05-25T00:29:58.777Z,92.10
2018-05-25T00:32:27.843Z,92.10
2018-05-25T00:34:56.159Z,92.10
2018-05-25T00:37:25.253Z,92.30
2018-05-25T00:39:54.312Z,92.40
2018-05-25T00:42:22.631Z,92.30
2018-05-25T00:44:51.693Z,92.30
2018-05-25T00:47:20.021Z,92.20
2018-05-25T00:49:48.325Z,92.30
2018-05-25T00:52:16.670Z,92.40
2018-05-25T00:57:47.539Z,92.20
2018-05-25T01:00:15.824Z,92.50
2018-05-25T01:02:44.141Z,92.40
2018-05-25T01:05:12.428Z,92.40
2018-05-25T01:07:40.757Z,92.60
2018-05-25T01:10:09.063Z,93.00
2018-05-25T01:12:37.395Z,92.60
2018-05-25T01:15:05.736Z,92.70
2018-05-25T01:17:34.932Z,92.70
2018-05-25T01:20:03.285Z,92.70
2018-05-25T01:22:31.656Z,92.30
2018-05-25T01:25:00.004Z,92.90
2018-05-25T01:27:28.369Z,93.00
2018-05-25T01:29:56.822Z,92.80
2018-05-25T01:32:25.207Z,92.90
2018-05-25T01:34:54.337Z,93.10
2018-05-25T01:37:22.696Z,93.10
2018-05-25T01:39:51.818Z,93.00
2018-05-25T01:42:20.193Z,93.00
2018-05-25T01:44:48.544Z,93.00
2018-05-25T01:47:17.728Z,93.00
2018-05-25T01:49:46.109Z,92.90
2018-05-25T01:52:14.524Z,93.10
2018-05-25T01:54:42.900Z,93.00
2018-05-25T01:57:11.301Z,93.00
2018-05-25T01:59:39.664Z,93.00
2018-05-25T02:02:08.060Z,93.10
2018-05-25T02:04:36.504Z,93.20
2018-05-25T02:07:04.862Z,93.10
2018-05-25T02:09:33.988Z,93.50
2018-05-25T02:12:03.169Z,93.10
2018-05-25T02:14:31.566Z,93.10
2018-05-25T02:16:59.972Z,93.10
2018-05-25T02:19:28.325Z,93.10
2018-05-25T02:21:56.772Z,92.90
2018-05-25T02:24:25.192Z,93.00
2018-05-25T02:26:54.341Z,92.90
2018-05-25T02:29:22.691Z,92.90
2018-05-25T02:31:51.816Z,93.00
2018-05-25T02:34:20.171Z,92.90
2018-05-25T02:36:48.589Z,92.90
2018-05-25T02:39:17.693Z,92.90
2018-05-25T02:41:45.992Z,92.90
2018-05-25T02:44:14.315Z,92.70
2018-05-25T02:46:42.615Z,92.70
2018-05-25T02:49:10.942Z,92.70
2018-05-25T02:51:39.256Z,92.80
2018-05-25T02:54:07.756Z,93.00
2018-05-25T02:56:36.055Z,93.20
2018-05-25T02:59:05.141Z,93.40
2018-05-25T03:01:34.205Z,93.40
2018-05-25T03:04:02.534Z,93.40
2018-05-25T03:06:30.834Z,93.30
2018-05-25T03:08:59.165Z,93.40
2018-05-25T03:11:27.457Z,93.40
2018-05-25T03:13:56.538Z,93.60
2018-05-25T03:16:25.604Z,93.60
2018-05-25T03:18:53.925Z,93.50
2018-05-25T03:21:22.984Z,93.30
2018-05-25T03:23:51.292Z,93.30
2018-05-25T03:26:19.605Z,93.20
2018-05-25T03:28:47.945Z,93.30
2018-05-25T03:31:16.233Z,93.20
2018-05-25T03:33:44.576Z,93.20
2018-05-25T03:36:12.872Z,93.00
2018-05-25T03:38:41.328Z,92.80
2018-05-25T03:41:09.617Z,92.80
2018-05-25T03:43:37.945Z,92.80
2018-05-25T03:46:06.240Z,92.70
2018-05-25T03:48:34.565Z,92.60
2018-05-25T03:51:03.632Z,92.70
2018-05-25T03:53:31.977Z,92.70
2018-05-25T03:56:00.276Z,92.70
2018-05-25T03:58:40.973Z,92.80
2018-05-25T04:01:21.925Z,93.30
2018-05-25T04:03:50.245Z,93.00
2018-05-25T04:06:18.544Z,92.80
2018-05-25T04:08:46.878Z,92.80
2018-05-25T04:11:15.163Z,92.90
2018-05-25T04:13:43.503Z,93.10
2018-05-25T04:16:11.805Z,93.40
2018-05-25T04:18:40.135Z,93.50
2018-05-25T04:21:08.428Z,93.30
2018-05-25T04:23:36.761Z,93.10
2018-05-25T04:26:05.815Z,92.80
2018-05-25T04:28:34.145Z,92.80
2018-05-25T04:31:02.444Z,92.80
2018-05-25T04:33:30.741Z,92.60
2018-05-25T04:35:59.828Z,92.90
2018-05-25T04:38:28.124Z,92.90
2018-05-25T04:40:56.440Z,92.90
2018-05-25T04:43:25.497Z,92.70
2018-05-25T04:45:53.824Z,92.70
2018-05-25T04:48:22.116Z,92.70
2018-05-25T04:50:50.476Z,92.80
2018-05-25T04:53:18.776Z,92.50
2018-05-25T04:55:47.089Z,92.60
2018-05-25T04:58:15.384Z,92.70
2018-05-25T05:00:43.712Z,92.60
2018-05-25T05:03:12.021Z,92.40
2018-05-25T05:05:40.336Z,92.70
2018-05-25T05:08:09.417Z,93.10
2018-05-25T05:10:37.764Z,93.10
2018-05-25T05:13:06.059Z,93.00
2018-05-25T05:15:34.376Z,92.70
2018-05-25T05:18:02.672Z,92.70
2018-05-25T05:20:30.997Z,92.60
2018-05-25T05:22:59.328Z,92.80
2018-05-25T05:25:27.625Z,93.20
2018-05-25T05:27:55.917Z,92.90
2018-05-25T05:30:24.251Z,92.90
2018-05-25T05:32:52.560Z,93.30
2018-05-25T05:35:20.908Z,92.90
2018-05-25T05:37:49.201Z,92.80
2018-05-25T05:40:17.518Z,92.70
2018-05-25T05:42:45.812Z,92.80
2018-05-25T05:45:14.136Z,92.30
2018-05-25T05:47:42.440Z,92.50
2018-05-25T05:50:10.755Z,92.60
2018-05-25T05:52:39.051Z,92.70
2018-05-25T05:55:07.380Z,92.30
2018-05-25T05:57:35.675Z,92.30
2018-05-25T06:00:04.013Z,92.00
2018-05-25T06:02:32.325Z,91.70
2018-05-25T06:05:00.661Z,92.10
2018-05-25T06:07:28.963Z,91.90
2018-05-25T06:09:57.301Z,91.70
2018-05-25T06:12:25.631Z,91.70
2018-05-25T06:14:53.913Z,92.00
2018-05-25T06:17:22.997Z,91.60
2018-05-25T06:19:51.293Z,91.60
2018-05-25T06:22:19.641Z,92.00
2018-05-25T06:24:47.952Z,91.90
2018-05-25T06:27:16.284Z,92.10
2018-05-25T06:29:44.582Z,92.10
2018-05-25T06:32:12.924Z,91.80
2018-05-25T06:34:41.260Z,91.50
2018-05-25T06:37:09.565Z,91.40
2018-05-25T06:39:37.872Z,91.30
2018-05-25T06:42:06.196Z,90.90
2018-05-25T06:44:35.262Z,90.80
2018-05-25T06:47:03.599Z,90.70
2018-05-25T06:49:31.904Z,90.60
2018-05-25T06:52:00.217Z,90.50
2018-05-25T06:54:29.283Z,90.20
2018-05-25T06:56:57.662Z,90.20
2018-05-25T06:59:26.026Z,90.10
2018-05-25T07:01:54.408Z,90.20
2018-05-25T07:04:22.804Z,90.00
2018-05-25T07:06:51.117Z,90.30
2018-05-25T07:09:19.400Z,90.10
2018-05-25T07:11:47.724Z,90.70
2018-05-25T07:14:16.016Z,90.70
2018-05-25T07:16:44.351Z,90.40
2018-05-25T07:19:12.648Z,90.20
2018-05-25T07:21:40.974Z,89.20
2018-05-25T07:24:10.039Z,88.60
2018-05-25T07:26:38.375Z,88.50
2018-05-25T07:29:06.665Z,88.50
2018-05-25T07:31:35.012Z,87.50
2018-05-25T07:34:03.304Z,88.40
2018-05-25T07:36:31.656Z,87.80
2018-05-25T07:39:00.711Z,89.80
2018-05-25T07:41:29.040Z,89.80
2018-05-25T07:43:57.351Z,89.30
2018-05-25T07:46:25.677Z,90.30
2018-05-25T07:48:53.974Z,90.30
2018-05-25T07:51:22.291Z,89.10
2018-05-25T07:53:51.353Z,86.50
2018-05-25T07:56:19.678Z,86.50
2018-05-25T07:58:47.972Z,85.20
2018-05-25T08:01:16.303Z,85.10
2018-05-25T08:03:44.633Z,84.90
2018-05-25T08:06:12.920Z,84.90
2018-05-25T08:08:42.012Z,85.90
2018-05-25T08:11:11.064Z,86.50
2018-05-25T08:13:40.152Z,87.30
2018-05-25T08:16:08.455Z,87.20
2018-05-25T08:18:36.792Z,87.70
2018-05-25T08:21:05.088Z,87.30
2018-05-25T08:23:33.396Z,85.90
2018-05-25T08:26:01.714Z,85.80
2018-05-25T08:28:30.034Z,87.00
2018-05-25T08:30:58.326Z,86.00
2018-05-25T08:33:26.662Z,85.50
2018-05-25T08:35:54.958Z,86.50
2018-05-25T08:38:23.290Z,84.70
2018-05-25T08:40:51.613Z,84.20
2018-05-25T08:43:19.984Z,83.40
2018-05-25T08:45:48.248Z,82.80
2018-05-25T08:48:16.568Z,82.90
2018-05-25T08:50:44.856Z,82.20
2018-05-25T08:53:13.182Z,81.40
2018-05-25T08:55:41.504Z,82.00
2018-05-25T08:58:09.815Z,82.10
2018-05-25T09:00:38.111Z,82.20
2018-05-25T09:03:06.439Z,81.30
2018-05-25T09:05:34.743Z,80.90
2018-05-25T09:08:03.064Z,81.80
2018-05-25T09:10:31.354Z,81.90
2018-05-25T09:12:59.700Z,82.70
2018-05-25T09:15:28.008Z,81.60
2018-05-25T09:17:56.340Z,80.20
2018-05-25T09:20:24.636Z,80.40
2018-05-25T09:22:52.952Z,80.30
2018-05-25T09:25:21.262Z,81.00
2018-05-25T09:27:50.363Z,80.90
2018-05-25T09:30:18.660Z,80.90
2018-05-25T09:32:47.003Z,80.10
2018-05-25T09:35:15.311Z,81.70
2018-05-25T09:37:43.640Z,81.80
2018-05-25T09:40:11.937Z,81.50
2018-05-25T09:42:41.013Z,82.00
2018-05-25T09:45:10.232Z,82.00
2018-05-25T09:47:38.637Z,80.00
2018-05-25T09:50:07.051Z,80.30
2018-05-25T09:52:35.438Z,81.30
2018-05-25T09:55:03.772Z,78.70
2018-05-25T09:57:32.078Z,80.10
2018-05-25T10:00:00.384Z,78.30
2018-05-25T10:02:28.675Z,78.80
2018-05-25T10:04:57.833Z,79.50
2018-05-25T10:07:26.132Z,79.60
2018-05-25T10:09:54.454Z,80.60
2018-05-25T10:12:22.756Z,79.80
2018-05-25T10:14:51.100Z,78.30
2018-05-25T10:17:19.460Z,80.20
2018-05-25T10:19:48.653Z,76.90
2018-05-25T10:22:16.972Z,76.90
2018-05-25T10:24:45.395Z,78.90
2018-05-25T10:27:13.722Z,74.40
2018-05-25T10:29:42.116Z,77.00
2018-05-25T10:32:10.554Z,79.10
2018-05-25T10:34:39.676Z,77.60
2018-05-25T10:37:08.059Z,77.50
2018-05-25T10:39:36.466Z,76.70
2018-05-25T10:42:05.588Z,74.40
2018-05-25T10:44:33.969Z,74.40
2018-05-25T10:47:02.336Z,74.90
2018-05-25T10:49:30.693Z,75.00
2018-05-25T10:51:58.979Z,72.80
2018-05-25T10:54:27.291Z,73.40
2018-05-25T10:56:55.596Z,72.60
2018-05-25T10:59:23.932Z,72.40
2018-05-25T11:01:52.240Z,70.90
2018-05-25T11:04:21.334Z,70.60
2018-05-25T11:06:50.405Z,71.90
2018-05-25T11:09:18.720Z,71.80
2018-05-25T11:11:47.012Z,71.10
2018-05-25T11:14:15.335Z,70.80
2018-05-25T11:16:44.409Z,70.20
2018-05-25T11:19:12.732Z,69.50
2018-05-25T11:21:41.800Z,71.60
2018-05-25T11:24:10.111Z,71.60
2018-05-25T11:26:38.407Z,71.30
2018-05-25T11:29:06.759Z,68.80
2018-05-25T11:31:35.832Z,64.00
2018-05-25T11:34:04.112Z,63.90
2018-05-25T11:36:32.430Z,64.80
2018-05-25T11:39:00.723Z,64.60
2018-05-25T11:41:29.065Z,62.70
2018-05-25T11:43:58.124Z,66.70
2018-05-25T11:46:26.436Z,66.70
2018-05-25T11:48:54.733Z,67.20
2018-05-25T11:51:23.048Z,64.20
2018-05-25T11:53:51.328Z,63.90
2018-05-25T11:56:19.632Z,65.60
2018-05-25T11:58:47.928Z,65.90
2018-05-25T12:01:16.248Z,65.00
2018-05-25T12:03:45.312Z,62.30
2018-05-25T12:06:13.647Z,62.30
2018-05-25T12:08:41.941Z,62.30
2018-05-25T12:11:10.251Z,61.70
2018-05-25T12:13:38.533Z,64.40
2018-05-25T12:16:06.839Z,60.20
2018-05-25T12:18:35.142Z,59.20
2018-05-25T12:21:03.453Z,59.60
2018-05-25T12:23:31.735Z,61.80
2018-05-25T12:26:00.041Z,67.40
2018-05-25T12:28:29.098Z,70.20
2018-05-25T12:30:57.405Z,69.70
2018-05-25T12:33:25.688Z,64.80
2018-05-25T12:35:54.012Z,59.80
2018-05-25T12:38:23.055Z,58.10
2018-05-25T12:40:51.360Z,58.00
2018-05-25T12:43:19.641Z,58.40
2018-05-25T12:45:47.948Z,56.60
2018-05-25T12:48:17.016Z,58.10
2018-05-25T12:50:45.327Z,58.00
2018-05-25T12:53:14.381Z,56.80
2018-05-25T12:55:42.697Z,56.80
2018-05-25T12:58:11.743Z,59.00
2018-05-25T13:00:40.072Z,59.00
2018-05-25T13:03:08.361Z,56.40
2018-05-25T13:05:36.672Z,57.60
2018-05-25T13:08:04.972Z,55.90
2018-05-25T13:10:33.298Z,54.90
2018-05-25T13:13:01.590Z,55.90
2018-05-25T13:15:29.904Z,52.60
2018-05-25T13:17:58.209Z,51.50
2018-05-25T13:20:27.281Z,51.90
2018-05-25T13:22:55.573Z,51.90
2018-05-25T13:25:24.661Z,53.40
2018-05-25T13:27:53.715Z,52.70
2018-05-25T13:30:22.007Z,52.50
2018-05-25T13:32:50.330Z,53.90
2018-05-25T13:35:18.643Z,49.30
2018-05-25T13:37:47.075Z,47.00
2018-05-25T13:40:16.196Z,48.00
2018-05-25T13:42:44.610Z,48.00
2018-05-25T13:45:12.989Z,45.10
2018-05-25T13:47:41.364Z,46.20
2018-05-25T13:50:09.713Z,48.40
2018-05-25T13:52:38.138Z,48.00
2018-05-25T13:55:06.482Z,46.00
2018-05-25T13:57:34.911Z,49.20
2018-05-25T14:00:03.319Z,47.10
2018-05-25T14:02:31.740Z,47.70
2018-05-25T14:05:00.165Z,48.20
2018-05-25T14:07:29.345Z,45.70
2018-05-25T14:09:57.674Z,45.70
2018-05-25T14:12:26.020Z,44.20
2018-05-25T14:14:55.186Z,44.60
2018-05-25T14:17:23.636Z,44.60
2018-05-25T14:19:51.933Z,43.20
2018-05-25T14:22:20.332Z,48.30
2018-05-25T14:24:48.686Z,45.70
2018-05-25T14:27:16.988Z,43.40
2018-05-25T14:29:45.265Z,43.80
2018-05-25T14:32:13.605Z,44.30
2018-05-25T14:34:41.891Z,40.90
2018-05-25T14:37:10.193Z,41.40
2018-05-25T14:39:38.476Z,42.60
2018-05-25T14:42:06.800Z,41.80
2018-05-25T14:44:35.080Z,41.30
2018-05-25T14:47:03.438Z,41.20
2018-05-25T14:49:32.492Z,40.30
2018-05-25T14:52:00.817Z,40.30
2018-05-25T14:54:29.152Z,37.60
2018-05-25T14:56:57.504Z,37.90
2018-05-25T14:59:25.801Z,38.40
2018-05-25T15:01:54.111Z,38.80
2018-05-25T15:04:23.159Z,39.20
2018-05-25T15:06:52.228Z,34.70
2018-05-25T15:09:20.504Z,34.00
2018-05-25T15:11:48.811Z,39.20
2018-05-25T15:14:17.144Z,34.00
2018-05-25T15:16:45.523Z,35.40
2018-05-25T15:19:14.740Z,34.70
2018-05-25T15:21:43.034Z,34.70
2018-05-25T15:24:11.346Z,38.00
2018-05-25T15:26:39.636Z,40.30
2018-05-25T15:29:08.733Z,39.00
2018-05-25T15:31:37.788Z,39.00
2018-05-25T15:34:06.094Z,38.90
2018-05-25T15:36:34.385Z,37.40
2018-05-25T15:39:03.468Z,36.50
2018-05-25T15:41:31.747Z,36.50
2018-05-25T15:44:00.060Z,37.50
2018-05-25T15:46:28.368Z,38.40
2018-05-25T15:48:56.688Z,41.00
2018-05-25T15:51:25.747Z,38.70
2018-05-25T15:53:54.056Z,38.60
2018-05-25T15:56:23.161Z,37.90
2018-05-25T15:58:51.444Z,37.20
2018-05-25T16:01:20.488Z,40.20
2018-05-25T16:03:48.808Z,40.20
2018-05-25T16:06:17.865Z,39.80
2018-05-25T16:08:46.190Z,39.90
2018-05-25T16:11:14.500Z,37.80
2018-05-25T16:13:42.812Z,38.50
2018-05-25T16:16:11.130Z,40.20
2018-05-25T16:18:39.471Z,41.90
2018-05-25T16:21:07.780Z,39.70
2018-05-25T16:23:36.149Z,41.30
2018-05-25T16:26:05.274Z,42.70
2018-05-25T16:28:33.701Z,42.70
2018-05-25T16:31:02.124Z,40.00
2018-05-25T16:33:30.604Z,39.90
2018-05-25T16:35:58.945Z,41.30
2018-05-25T16:38:27.417Z,38.80
2018-05-25T16:40:55.799Z,39.50
2018-05-25T16:43:24.188Z,41.10
2018-05-25T16:45:52.501Z,40.10
2018-05-25T16:48:20.917Z,40.30
2018-05-25T16:50:49.210Z,39.60
2018-05-25T16:53:17.528Z,40.30
2018-05-25T16:55:45.817Z,38.60
2018-05-25T16:58:14.121Z,39.00
2018-05-25T17:00:43.177Z,41.20
2018-05-25T17:03:12.260Z,42.10
2018-05-25T17:05:41.316Z,41.70
2018-05-25T17:08:09.618Z,41.60
2018-05-25T17:10:37.896Z,41.90
2018-05-25T17:13:06.212Z,41.60
2018-05-25T17:15:34.502Z,42.80
2018-05-25T17:18:02.808Z,42.30
2018-05-25T17:20:31.090Z,43.70
2018-05-25T17:22:59.414Z,45.70
2018-05-25T17:25:27.718Z,46.20
2018-05-25T17:27:55.992Z,47.40
2018-05-25T17:30:24.343Z,49.20
2018-05-25T17:32:53.375Z,50.00
2018-05-25T17:35:21.676Z,50.00
2018-05-25T17:37:49.964Z,51.20
2018-05-25T17:40:18.283Z,52.50
2018-05-25T17:42:46.571Z,53.00
2018-05-25T17:45:14.896Z,53.60
2018-05-25T17:47:43.203Z,55.10
2018-05-25T17:50:11.525Z,54.80
2018-05-25T17:52:39.800Z,54.50
2018-05-25T17:55:08.103Z,54.70
2018-05-25T17:57:36.392Z,55.70
2018-05-25T18:00:04.704Z,56.00
2018-05-25T18:02:33.009Z,57.20
2018-05-25T18:05:01.329Z,56.60
2018-05-25T18:07:30.378Z,58.20
2018-05-25T18:09:58.700Z,58.20
2018-05-25T18:12:27.795Z,58.90
2018-05-25T18:14:56.869Z,59.20
2018-05-25T18:17:25.173Z,59.20
2018-05-25T18:19:53.505Z,60.40
2018-05-25T18:22:21.796Z,60.90
2018-05-25T18:24:50.108Z,60.60
2018-05-25T18:27:19.201Z,64.20
2018-05-25T18:29:47.478Z,63.30
2018-05-25T18:32:16.538Z,64.40
2018-05-25T18:34:44.864Z,64.40
2018-05-25T18:37:13.156Z,65.50
2018-05-25T18:39:41.485Z,66.20
2018-05-25T18:42:09.771Z,66.70
2018-05-25T18:44:38.843Z,68.20
2018-05-25T18:47:07.148Z,68.20
2018-05-25T18:49:36.223Z,69.10
2018-05-25T18:52:04.504Z,69.00
2018-05-25T18:54:32.828Z,69.10
2018-05-25T18:57:01.099Z,69.30
2018-05-25T18:59:29.422Z,68.90
2018-05-25T19:01:57.727Z,69.80
2018-05-25T19:04:26.857Z,72.90
2018-05-25T19:06:55.877Z,73.00
2018-05-25T19:09:24.196Z,73.00
2018-05-25T19:11:52.478Z,73.70
2018-05-25T19:14:21.559Z,75.10
2018-05-25T19:16:49.854Z,75.10
2018-05-25T19:19:18.961Z,76.00
2018-05-25T19:21:47.243Z,75.90
2018-05-25T19:24:15.575Z,76.20
2018-05-25T19:26:43.854Z,76.60
2018-05-25T19:29:12.168Z,77.00
2018-05-25T19:31:40.440Z,77.40
2018-05-25T19:34:08.728Z,77.90
2018-05-25T19:36:37.072Z,78.00
2018-05-25T19:39:06.289Z,78.30
2018-05-25T19:41:34.609Z,78.10
2018-05-25T19:44:02.897Z,78.20
2018-05-25T19:46:31.224Z,78.40
2018-05-25T19:48:59.512Z,77.80
2018-05-25T19:51:27.832Z,77.60
2018-05-25T19:53:56.126Z,78.10
2018-05-25T19:56:24.452Z,78.80
2018-05-25T19:58:52.750Z,79.60
2018-05-25T20:01:21.058Z,79.90
2018-05-25T20:03:49.347Z,80.40
2018-05-25T20:06:17.664Z,80.20
2018-05-25T20:08:45.968Z,80.00
2018-05-25T20:11:14.270Z,80.10
2018-05-25T20:13:42.554Z,80.30
2018-05-25T20:16:11.672Z,81.40
2018-05-25T20:18:39.956Z,81.40
2018-05-25T20:21:08.275Z,81.60
2018-05-25T20:23:36.558Z,82.00
2018-05-25T20:26:04.879Z,82.20
2018-05-25T20:28:33.958Z,82.60
2018-05-25T20:31:03.041Z,83.50
2018-05-25T20:33:31.325Z,83.50
2018-05-25T20:36:00.412Z,84.30
2018-05-25T20:38:28.692Z,83.70
2018-05-25T20:40:57.009Z,84.00
2018-05-25T20:43:25.295Z,83.40
2018-05-25T20:45:53.612Z,83.70
2018-05-25T20:48:21.891Z,83.80
2018-05-25T20:50:50.200Z,84.30
2018-05-25T20:53:19.290Z,82.90
2018-05-25T20:55:47.618Z,82.90
2018-05-25T20:58:15.904Z,82.50
2018-05-25T21:00:44.216Z,81.80
2018-05-25T21:03:12.506Z,81.50
2018-05-25T21:05:41.585Z,81.30
2018-05-25T21:08:09.868Z,81.30
2018-05-25T21:10:38.945Z,82.00
2018-05-25T21:13:07.227Z,82.00
2018-05-25T21:15:35.532Z,81.60
2018-05-25T21:18:04.572Z,82.80
2018-05-25T21:20:32.892Z,82.80
2018-05-25T21:23:01.936Z,83.60
2018-05-25T21:25:30.259Z,83.60
2018-05-25T21:27:59.312Z,84.40
2018-05-25T21:30:27.641Z,83.60
2018-05-25T21:32:56.699Z,82.90
2018-05-25T21:35:25.004Z,82.80
2018-05-25T21:37:53.296Z,82.70
2018-05-25T21:40:22.353Z,82.00
2018-05-25T21:42:50.670Z,82.00
2018-05-25T21:45:19.731Z,82.40
2018-05-25T21:47:48.042Z,82.40
2018-05-25T21:50:17.100Z,82.30
2018-05-25T21:52:45.405Z,82.30
2018-05-25T21:55:14.481Z,82.30
2018-05-25T21:57:42.784Z,82.30
2018-05-25T22:00:11.064Z,82.40
2018-05-25T22:02:40.151Z,83.10
2018-05-25T22:05:09.207Z,82.90
2018-05-25T22:07:37.571Z,82.80
2018-05-25T22:10:05.889Z,82.70
2018-05-25T22:12:34.198Z,82.00
2018-05-25T22:15:02.492Z,82.20
2018-05-25T22:17:30.795Z,81.90
2018-05-25T22:19:59.099Z,81.90
2018-05-25T22:22:27.446Z,81.60
2018-05-25T22:24:55.728Z,81.60
2018-05-25T22:27:24.035Z,81.90
2018-05-25T22:29:52.335Z,82.10
2018-05-25T22:32:20.666Z,82.40
2018-05-25T22:34:48.944Z,82.40
2018-05-25T22:37:17.244Z,82.70
2018-05-25T22:39:45.528Z,82.90
2018-05-25T22:42:26.413Z,82.70
2018-05-25T22:45:12.613Z,82.60
2018-05-25T22:47:58.944Z,82.50
2018-05-25T22:50:45.002Z,82.50
2018-05-25T22:53:24.405Z,82.50
2018-05-25T22:55:52.691Z,82.80
2018-05-25T22:58:21.032Z,83.70
2018-05-25T23:00:49.316Z,83.90
2018-05-25T23:03:17.637Z,83.50
2018-05-25T23:05:46.705Z,84.50
2018-05-25T23:08:15.012Z,84.50
2018-05-25T23:10:43.305Z,84.90
2018-05-25T23:13:11.617Z,84.90
2018-05-25T23:15:39.895Z,84.90
2018-05-25T23:18:08.208Z,84.80
2018-05-25T23:20:36.489Z,84.70
2018-05-25T23:23:04.804Z,84.60
2018-05-25T23:25:33.089Z,84.60
2018-05-25T23:28:01.398Z,84.50
2018-05-25T23:30:29.676Z,84.50
2018-05-25T23:32:57.972Z,84.50
2018-05-25T23:35:27.027Z,84.60
2018-05-25T23:37:55.336Z,84.60
2018-05-25T23:40:23.623Z,84.90
2018-05-25T23:42:52.696Z,85.10
2018-05-25T23:45:20.975Z,85.80
2018-05-25T23:47:49.288Z,85.10
2018-05-25T23:50:18.344Z,85.40
2018-05-25T23:52:46.656Z,85.40
2018-05-25T23:55:15.720Z,85.30
2018-05-25T23:57:44.031Z,85.30
